sensor_id;sensor_type;location;lat;lon;timestamp;temperature;humidity
44215;DHT22;29884;47.450;19.124;2023-06-04T00:00:44;14.00;93.20
44215;DHT22;29884;47.450;19.124;2023-06-04T00:03:10;13.90;93.30
44215;DHT22;29884;47.450;19.124;2023-06-04T00:05:35;14.00;92.80
44215;DHT22;29884;47.450;19.124;2023-06-04T00:08:01;14.00;93.00
44215;DHT22;29884;47.450;19.124;2023-06-04T00:10:27;14.00;92.60
44215;DHT22;29884;47.450;19.124;2023-06-04T00:12:53;14.00;93.00
44215;DHT22;29884;47.450;19.124;2023-06-04T00:15:18;13.90;93.20
44215;DHT22;29884;47.450;19.124;2023-06-04T00:17:44;13.90;93.40
44215;DHT22;29884;47.450;19.124;2023-06-04T00:20:10;13.80;93.50
44215;DHT22;29884;47.450;19.124;2023-06-04T00:22:37;13.80;93.90
44215;DHT22;29884;47.450;19.124;2023-06-04T00:25:07;13.80;95.10
44215;DHT22;29884;47.450;19.124;2023-06-04T00:27:33;13.80;95.30
44215;DHT22;29884;47.450;19.124;2023-06-04T00:29:59;13.80;96.10
44215;DHT22;29884;47.450;19.124;2023-06-04T00:32:25;13.60;96.70
44215;DHT22;29884;47.450;19.124;2023-06-04T00:34:52;13.60;96.40
44215;DHT22;29884;47.450;19.124;2023-06-04T00:37:17;13.50;96.80
44215;DHT22;29884;47.450;19.124;2023-06-04T00:39:43;13.60;97.70
44215;DHT22;29884;47.450;19.124;2023-06-04T00:42:09;13.50;98.20
44215;DHT22;29884;47.450;19.124;2023-06-04T00:44:35;13.50;98.50
44215;DHT22;29884;47.450;19.124;2023-06-04T00:47:01;13.40;98.60
44215;DHT22;29884;47.450;19.124;2023-06-04T00:49:28;13.40;99.10
44215;DHT22;29884;47.450;19.124;2023-06-04T00:51:54;13.50;98.70
44215;DHT22;29884;47.450;19.124;2023-06-04T00:54:20;13.50;98.70
44215;DHT22;29884;47.450;19.124;2023-06-04T00:56:47;13.50;99.90
44215;DHT22;29884;47.450;19.124;2023-06-04T00:59:13;13.40;99.90
44215;DHT22;29884;47.450;19.124;2023-06-04T01:01:51;13.40;99.90
44215;DHT22;29884;47.450;19.124;2023-06-04T01:04:46;13.40;99.90
44215;DHT22;29884;47.450;19.124;2023-06-04T01:07:16;13.40;99.90
44215;DHT22;29884;47.450;19.124;2023-06-04T01:09:44;13.40;99.90
44215;DHT22;29884;47.450;19.124;2023-06-04T01:12:11;13.40;99.90
44215;DHT22;29884;47.450;19.124;2023-06-04T01:14:37;13.50;99.90
44215;DHT22;29884;47.450;19.124;2023-06-04T01:17:11;13.50;99.90
44215;DHT22;29884;47.450;19.124;2023-06-04T01:25:40;13.40;99.90
44215;DHT22;29884;47.450;19.124;2023-06-04T01:28:12;13.30;99.90
44215;DHT22;29884;47.450;19.124;2023-06-04T01:30:40;13.30;99.90
44215;DHT22;29884;47.450;19.124;2023-06-04T01:33:10;13.30;99.90
44215;DHT22;29884;47.450;19.124;2023-06-04T01:35:39;13.30;99.90
44215;DHT22;29884;47.450;19.124;2023-06-04T01:38:05;13.40;99.90
44215;DHT22;29884;47.450;19.124;2023-06-04T01:40:31;13.30;99.90
44215;DHT22;29884;47.450;19.124;2023-06-04T01:42:58;13.20;99.90
44215;DHT22;29884;47.450;19.124;2023-06-04T01:45:24;13.10;99.90
44215;DHT22;29884;47.450;19.124;2023-06-04T01:47:51;13.20;99.90
44215;DHT22;29884;47.450;19.124;2023-06-04T01:50:17;13.20;99.90
44215;DHT22;29884;47.450;19.124;2023-06-04T01:52:42;13.20;99.90
44215;DHT22;29884;47.450;19.124;2023-06-04T01:55:11;13.20;99.90
44215;DHT22;29884;47.450;19.124;2023-06-04T01:57:38;13.20;99.90
44215;DHT22;29884;47.450;19.124;2023-06-04T02:00:06;13.20;99.90
44215;DHT22;29884;47.450;19.124;2023-06-04T02:02:34;13.20;99.90
44215;DHT22;29884;47.450;19.124;2023-06-04T02:05:01;13.20;99.90
44215;DHT22;29884;47.450;19.124;2023-06-04T02:07:27;13.10;99.90
44215;DHT22;29884;47.450;19.124;2023-06-04T02:09:52;13.10;99.90
44215;DHT22;29884;47.450;19.124;2023-06-04T02:12:18;13.00;99.90
44215;DHT22;29884;47.450;19.124;2023-06-04T02:14:44;13.00;99.90
44215;DHT22;29884;47.450;19.124;2023-06-04T02:17:13;12.90;99.90
44215;DHT22;29884;47.450;19.124;2023-06-04T02:19:43;12.90;99.90
44215;DHT22;29884;47.450;19.124;2023-06-04T02:22:11;13.00;99.90
44215;DHT22;29884;47.450;19.124;2023-06-04T02:24:38;13.00;99.90
44215;DHT22;29884;47.450;19.124;2023-06-04T02:27:05;12.90;99.90
44215;DHT22;29884;47.450;19.124;2023-06-04T02:29:31;12.90;99.90
44215;DHT22;29884;47.450;19.124;2023-06-04T02:31:56;12.90;99.90
44215;DHT22;29884;47.450;19.124;2023-06-04T02:34:22;12.90;99.90
44215;DHT22;29884;47.450;19.124;2023-06-04T02:36:49;12.90;99.90
44215;DHT22;29884;47.450;19.124;2023-06-04T02:39:17;12.80;99.90
44215;DHT22;29884;47.450;19.124;2023-06-04T02:41:43;12.80;99.90
44215;DHT22;29884;47.450;19.124;2023-06-04T02:44:09;12.70;99.90
44215;DHT22;29884;47.450;19.124;2023-06-04T02:46:36;12.50;99.90
44215;DHT22;29884;47.450;19.124;2023-06-04T02:49:02;12.50;99.90
44215;DHT22;29884;47.450;19.124;2023-06-04T02:51:27;12.60;99.90
44215;DHT22;29884;47.450;19.124;2023-06-04T02:53:54;12.60;99.90
44215;DHT22;29884;47.450;19.124;2023-06-04T02:56:20;12.60;99.90
44215;DHT22;29884;47.450;19.124;2023-06-04T02:58:52;12.60;99.90
44215;DHT22;29884;47.450;19.124;2023-06-04T03:01:25;12.60;99.90
44215;DHT22;29884;47.450;19.124;2023-06-04T03:03:52;12.60;99.90
44215;DHT22;29884;47.450;19.124;2023-06-04T03:06:19;12.70;99.90
44215;DHT22;29884;47.450;19.124;2023-06-04T03:08:49;12.70;99.90
44215;DHT22;29884;47.450;19.124;2023-06-04T03:11:16;12.70;99.90
44215;DHT22;29884;47.450;19.124;2023-06-04T03:13:42;12.70;99.90
44215;DHT22;29884;47.450;19.124;2023-06-04T03:16:08;12.80;99.90
44215;DHT22;29884;47.450;19.124;2023-06-04T03:18:36;12.80;99.90
44215;DHT22;29884;47.450;19.124;2023-06-04T03:21:03;12.90;99.90
44215;DHT22;29884;47.450;19.124;2023-06-04T03:23:29;12.90;99.90
44215;DHT22;29884;47.450;19.124;2023-06-04T03:25:54;12.80;99.90
44215;DHT22;29884;47.450;19.124;2023-06-04T03:28:20;12.80;99.90
44215;DHT22;29884;47.450;19.124;2023-06-04T03:30:46;12.80;99.90
44215;DHT22;29884;47.450;19.124;2023-06-04T03:33:12;12.90;99.90
44215;DHT22;29884;47.450;19.124;2023-06-04T03:35:40;12.90;99.90
44215;DHT22;29884;47.450;19.124;2023-06-04T03:38:06;13.00;99.90
44215;DHT22;29884;47.450;19.124;2023-06-04T03:40:32;13.10;99.90
44215;DHT22;29884;47.450;19.124;2023-06-04T03:42:58;13.10;99.90
44215;DHT22;29884;47.450;19.124;2023-06-04T03:45:23;13.30;99.90
44215;DHT22;29884;47.450;19.124;2023-06-04T03:47:50;13.30;99.90
44215;DHT22;29884;47.450;19.124;2023-06-04T03:50:15;13.40;99.90
44215;DHT22;29884;47.450;19.124;2023-06-04T03:52:41;13.60;99.90
44215;DHT22;29884;47.450;19.124;2023-06-04T03:55:07;13.60;99.90
44215;DHT22;29884;47.450;19.124;2023-06-04T03:57:33;13.60;99.90
44215;DHT22;29884;47.450;19.124;2023-06-04T03:59:58;13.70;99.90
44215;DHT22;29884;47.450;19.124;2023-06-04T04:02:24;13.80;99.90
44215;DHT22;29884;47.450;19.124;2023-06-04T04:04:51;13.90;99.90
44215;DHT22;29884;47.450;19.124;2023-06-04T04:07:19;14.00;99.90
44215;DHT22;29884;47.450;19.124;2023-06-04T04:09:46;14.10;99.90
44215;DHT22;29884;47.450;19.124;2023-06-04T04:12:12;14.10;99.90
44215;DHT22;29884;47.450;19.124;2023-06-04T04:14:37;14.10;99.90
44215;DHT22;29884;47.450;19.124;2023-06-04T04:17:03;14.10;99.90
44215;DHT22;29884;47.450;19.124;2023-06-04T04:19:29;14.00;99.90
44215;DHT22;29884;47.450;19.124;2023-06-04T04:21:55;14.00;99.90
44215;DHT22;29884;47.450;19.124;2023-06-04T04:24:25;14.10;99.90
44215;DHT22;29884;47.450;19.124;2023-06-04T04:26:51;14.00;99.90
44215;DHT22;29884;47.450;19.124;2023-06-04T04:29:19;14.00;99.90
44215;DHT22;29884;47.450;19.124;2023-06-04T04:31:49;14.00;99.90
44215;DHT22;29884;47.450;19.124;2023-06-04T04:34:14;14.00;99.90
44215;DHT22;29884;47.450;19.124;2023-06-04T04:36:40;14.00;99.90
44215;DHT22;29884;47.450;19.124;2023-06-04T04:39:06;14.10;99.90
44215;DHT22;29884;47.450;19.124;2023-06-04T04:41:33;14.10;99.90
44215;DHT22;29884;47.450;19.124;2023-06-04T04:44:05;14.20;99.90
44215;DHT22;29884;47.450;19.124;2023-06-04T04:46:31;14.20;99.90
44215;DHT22;29884;47.450;19.124;2023-06-04T04:48:57;14.40;99.90
44215;DHT22;29884;47.450;19.124;2023-06-04T04:51:23;14.50;99.90
44215;DHT22;29884;47.450;19.124;2023-06-04T04:53:48;14.70;99.90
44215;DHT22;29884;47.450;19.124;2023-06-04T04:56:14;14.90;99.90
44215;DHT22;29884;47.450;19.124;2023-06-04T04:58:40;14.90;98.70
44215;DHT22;29884;47.450;19.124;2023-06-04T05:01:06;14.90;98.50
44215;DHT22;29884;47.450;19.124;2023-06-04T05:03:31;15.00;98.10
44215;DHT22;29884;47.450;19.124;2023-06-04T05:05:57;15.00;98.70
44215;DHT22;29884;47.450;19.124;2023-06-04T05:08:23;15.00;97.70
44215;DHT22;29884;47.450;19.124;2023-06-04T05:10:50;15.10;97.10
44215;DHT22;29884;47.450;19.124;2023-06-04T05:13:16;15.10;96.00
44215;DHT22;29884;47.450;19.124;2023-06-04T05:15:43;15.10;94.60
44215;DHT22;29884;47.450;19.124;2023-06-04T05:18:09;15.20;95.50
44215;DHT22;29884;47.450;19.124;2023-06-04T05:20:34;15.20;95.10
44215;DHT22;29884;47.450;19.124;2023-06-04T05:23:03;15.30;95.50
44215;DHT22;29884;47.450;19.124;2023-06-04T05:25:29;15.30;94.70
44215;DHT22;29884;47.450;19.124;2023-06-04T05:27:58;15.30;94.80
44215;DHT22;29884;47.450;19.124;2023-06-04T05:30:24;15.30;94.30
44215;DHT22;29884;47.450;19.124;2023-06-04T05:32:50;15.40;95.70
44215;DHT22;29884;47.450;19.124;2023-06-04T05:35:16;15.50;94.70
44215;DHT22;29884;47.450;19.124;2023-06-04T05:37:42;15.50;94.50
44215;DHT22;29884;47.450;19.124;2023-06-04T05:40:11;15.60;93.90
44215;DHT22;29884;47.450;19.124;2023-06-04T05:42:38;15.70;93.60
44215;DHT22;29884;47.450;19.124;2023-06-04T05:45:05;15.70;92.70
44215;DHT22;29884;47.450;19.124;2023-06-04T05:47:33;15.80;92.90
44215;DHT22;29884;47.450;19.124;2023-06-04T05:49:59;15.80;92.40
44215;DHT22;29884;47.450;19.124;2023-06-04T05:52:25;15.90;91.60
44215;DHT22;29884;47.450;19.124;2023-06-04T05:54:50;16.00;92.60
44215;DHT22;29884;47.450;19.124;2023-06-04T05:57:16;16.00;91.80
44215;DHT22;29884;47.450;19.124;2023-06-04T05:59:42;16.10;93.00
44215;DHT22;29884;47.450;19.124;2023-06-04T06:02:08;16.30;91.90
44215;DHT22;29884;47.450;19.124;2023-06-04T06:04:34;16.20;91.00
44215;DHT22;29884;47.450;19.124;2023-06-04T06:07:00;16.20;90.50
44215;DHT22;29884;47.450;19.124;2023-06-04T06:09:26;16.20;90.70
44215;DHT22;29884;47.450;19.124;2023-06-04T06:11:52;16.30;90.60
44215;DHT22;29884;47.450;19.124;2023-06-04T06:14:17;16.30;89.50
44215;DHT22;29884;47.450;19.124;2023-06-04T06:16:43;16.40;90.10
44215;DHT22;29884;47.450;19.124;2023-06-04T06:19:09;16.50;90.30
44215;DHT22;29884;47.450;19.124;2023-06-04T06:21:36;16.60;87.80
44215;DHT22;29884;47.450;19.124;2023-06-04T06:24:02;16.70;88.60
44215;DHT22;29884;47.450;19.124;2023-06-04T06:26:27;17.00;87.40
44215;DHT22;29884;47.450;19.124;2023-06-04T06:28:54;17.20;88.40
44215;DHT22;29884;47.450;19.124;2023-06-04T06:31:21;17.30;83.40
44215;DHT22;29884;47.450;19.124;2023-06-04T06:33:47;17.40;83.80
44215;DHT22;29884;47.450;19.124;2023-06-04T06:36:12;17.50;85.30
44215;DHT22;29884;47.450;19.124;2023-06-04T06:38:38;17.50;82.90
44215;DHT22;29884;47.450;19.124;2023-06-04T06:41:04;17.60;85.70
44215;DHT22;29884;47.450;19.124;2023-06-04T06:43:30;17.60;85.10
44215;DHT22;29884;47.450;19.124;2023-06-04T06:45:57;17.70;83.30
44215;DHT22;29884;47.450;19.124;2023-06-04T06:48:23;17.70;85.20
44215;DHT22;29884;47.450;19.124;2023-06-04T06:50:48;17.90;84.70
44215;DHT22;29884;47.450;19.124;2023-06-04T06:53:14;17.90;83.80
44215;DHT22;29884;47.450;19.124;2023-06-04T06:55:40;18.10;81.40
44215;DHT22;29884;47.450;19.124;2023-06-04T06:58:05;18.20;81.40
44215;DHT22;29884;47.450;19.124;2023-06-04T07:00:31;18.20;82.70
44215;DHT22;29884;47.450;19.124;2023-06-04T07:02:57;18.30;78.90
44215;DHT22;29884;47.450;19.124;2023-06-04T07:05:23;18.30;79.40
44215;DHT22;29884;47.450;19.124;2023-06-04T07:07:48;18.40;79.80
44215;DHT22;29884;47.450;19.124;2023-06-04T07:10:14;18.40;75.70
44215;DHT22;29884;47.450;19.124;2023-06-04T07:12:40;18.50;76.10
44215;DHT22;29884;47.450;19.124;2023-06-04T07:15:06;18.60;78.30
44215;DHT22;29884;47.450;19.124;2023-06-04T07:17:33;18.60;78.90
44215;DHT22;29884;47.450;19.124;2023-06-04T07:19:59;18.80;76.50
44215;DHT22;29884;47.450;19.124;2023-06-04T07:22:26;18.70;78.10
44215;DHT22;29884;47.450;19.124;2023-06-04T07:24:51;18.90;77.90
44215;DHT22;29884;47.450;19.124;2023-06-04T07:27:18;19.00;72.00
44215;DHT22;29884;47.450;19.124;2023-06-04T07:29:44;19.00;71.50
44215;DHT22;29884;47.450;19.124;2023-06-04T07:32:11;18.90;71.20
44215;DHT22;29884;47.450;19.124;2023-06-04T07:34:39;18.90;70.50
44215;DHT22;29884;47.450;19.124;2023-06-04T07:37:06;19.10;70.10
44215;DHT22;29884;47.450;19.124;2023-06-04T07:39:32;19.30;69.90
44215;DHT22;29884;47.450;19.124;2023-06-04T07:41:57;19.40;70.80
44215;DHT22;29884;47.450;19.124;2023-06-04T07:44:23;19.50;67.80
44215;DHT22;29884;47.450;19.124;2023-06-04T07:46:48;19.50;67.10
44215;DHT22;29884;47.450;19.124;2023-06-04T07:49:14;19.60;66.50
44215;DHT22;29884;47.450;19.124;2023-06-04T07:51:40;19.70;68.60
44215;DHT22;29884;47.450;19.124;2023-06-04T07:54:06;19.80;69.20
44215;DHT22;29884;47.450;19.124;2023-06-04T07:56:32;19.90;66.80
44215;DHT22;29884;47.450;19.124;2023-06-04T07:58:57;19.80;68.00
44215;DHT22;29884;47.450;19.124;2023-06-04T08:01:23;19.80;63.20
44215;DHT22;29884;47.450;19.124;2023-06-04T08:03:49;19.90;64.70
44215;DHT22;29884;47.450;19.124;2023-06-04T08:06:15;20.00;62.30
44215;DHT22;29884;47.450;19.124;2023-06-04T08:08:45;20.10;63.00
44215;DHT22;29884;47.450;19.124;2023-06-04T08:11:14;20.20;62.60
44215;DHT22;29884;47.450;19.124;2023-06-04T08:13:41;20.30;63.50
44215;DHT22;29884;47.450;19.124;2023-06-04T08:16:07;20.50;61.10
44215;DHT22;29884;47.450;19.124;2023-06-04T08:18:33;20.70;62.80
44215;DHT22;29884;47.450;19.124;2023-06-04T08:20:58;20.70;59.40
44215;DHT22;29884;47.450;19.124;2023-06-04T08:23:24;20.90;58.70
44215;DHT22;29884;47.450;19.124;2023-06-04T08:25:50;21.10;60.30
44215;DHT22;29884;47.450;19.124;2023-06-04T08:28:16;21.20;57.90
44215;DHT22;29884;47.450;19.124;2023-06-04T08:30:42;21.30;55.80
44215;DHT22;29884;47.450;19.124;2023-06-04T08:33:08;21.50;58.70
44215;DHT22;29884;47.450;19.124;2023-06-04T08:35:34;21.50;53.30
44215;DHT22;29884;47.450;19.124;2023-06-04T08:38:00;21.50;50.80
44215;DHT22;29884;47.450;19.124;2023-06-04T08:40:26;21.60;53.30
44215;DHT22;29884;47.450;19.124;2023-06-04T08:42:55;21.80;53.20
44215;DHT22;29884;47.450;19.124;2023-06-04T08:45:23;21.90;54.20
44215;DHT22;29884;47.450;19.124;2023-06-04T08:47:50;21.90;53.90
44215;DHT22;29884;47.450;19.124;2023-06-04T08:50:24;22.10;55.00
44215;DHT22;29884;47.450;19.124;2023-06-04T08:52:53;22.10;54.40
44215;DHT22;29884;47.450;19.124;2023-06-04T08:55:22;22.00;51.30
44215;DHT22;29884;47.450;19.124;2023-06-04T08:57:51;21.80;50.90
44215;DHT22;29884;47.450;19.124;2023-06-04T09:00:18;22.00;50.60
44215;DHT22;29884;47.450;19.124;2023-06-04T09:02:45;21.90;50.10
44215;DHT22;29884;47.450;19.124;2023-06-04T09:05:18;21.80;50.00
44215;DHT22;29884;47.450;19.124;2023-06-04T09:07:46;21.70;51.60
44215;DHT22;29884;47.450;19.124;2023-06-04T09:10:14;21.60;51.30
44215;DHT22;29884;47.450;19.124;2023-06-04T09:12:43;21.50;52.70
44215;DHT22;29884;47.450;19.124;2023-06-04T09:15:10;21.50;54.40
44215;DHT22;29884;47.450;19.124;2023-06-04T09:17:36;21.40;55.40
44215;DHT22;29884;47.450;19.124;2023-06-04T09:20:02;21.40;56.10
44215;DHT22;29884;47.450;19.124;2023-06-04T09:22:32;21.20;56.10
44215;DHT22;29884;47.450;19.124;2023-06-04T09:24:59;21.10;56.50
44215;DHT22;29884;47.450;19.124;2023-06-04T09:27:24;21.20;57.50
44215;DHT22;29884;47.450;19.124;2023-06-04T09:29:53;21.10;57.90
44215;DHT22;29884;47.450;19.124;2023-06-04T09:32:26;20.90;57.50
44215;DHT22;29884;47.450;19.124;2023-06-04T09:34:53;21.00;57.20
44215;DHT22;29884;47.450;19.124;2023-06-04T09:37:19;21.00;56.90
44215;DHT22;29884;47.450;19.124;2023-06-04T09:39:57;20.90;56.10
44215;DHT22;29884;47.450;19.124;2023-06-04T09:42:24;20.90;57.30
44215;DHT22;29884;47.450;19.124;2023-06-04T09:44:50;20.90;57.80
44215;DHT22;29884;47.450;19.124;2023-06-04T09:47:16;20.90;59.70
44215;DHT22;29884;47.450;19.124;2023-06-04T09:49:46;20.90;58.20
44215;DHT22;29884;47.450;19.124;2023-06-04T09:52:13;20.80;58.50
44215;DHT22;29884;47.450;19.124;2023-06-04T09:54:41;20.70;58.70
44215;DHT22;29884;47.450;19.124;2023-06-04T09:57:15;20.60;58.50
44215;DHT22;29884;47.450;19.124;2023-06-04T09:59:49;20.60;58.80
44215;DHT22;29884;47.450;19.124;2023-06-04T10:02:20;20.60;60.30
44215;DHT22;29884;47.450;19.124;2023-06-04T10:04:54;20.70;59.20
44215;DHT22;29884;47.450;19.124;2023-06-04T10:07:23;20.60;61.10
44215;DHT22;29884;47.450;19.124;2023-06-04T10:09:50;20.60;60.90
44215;DHT22;29884;47.450;19.124;2023-06-04T10:12:23;20.50;60.00
44215;DHT22;29884;47.450;19.124;2023-06-04T10:15:02;20.40;60.30
44215;DHT22;29884;47.450;19.124;2023-06-04T10:17:28;20.50;62.00
44215;DHT22;29884;47.450;19.124;2023-06-04T10:19:56;20.50;61.10
44215;DHT22;29884;47.450;19.124;2023-06-04T10:22:24;20.60;62.00
44215;DHT22;29884;47.450;19.124;2023-06-04T10:24:50;20.50;62.10
44215;DHT22;29884;47.450;19.124;2023-06-04T10:27:19;20.50;61.50
44215;DHT22;29884;47.450;19.124;2023-06-04T10:29:46;20.50;61.70
44215;DHT22;29884;47.450;19.124;2023-06-04T10:32:12;20.50;61.30
44215;DHT22;29884;47.450;19.124;2023-06-04T10:34:38;20.50;62.50
44215;DHT22;29884;47.450;19.124;2023-06-04T10:37:04;20.60;61.80
44215;DHT22;29884;47.450;19.124;2023-06-04T10:39:31;20.50;60.50
44215;DHT22;29884;47.450;19.124;2023-06-04T10:42:04;20.50;61.10
44215;DHT22;29884;47.450;19.124;2023-06-04T10:44:31;20.60;60.90
44215;DHT22;29884;47.450;19.124;2023-06-04T10:46:58;20.70;59.60
44215;DHT22;29884;47.450;19.124;2023-06-04T10:49:30;20.60;58.00
44215;DHT22;29884;47.450;19.124;2023-06-04T10:52:10;20.70;58.50
44215;DHT22;29884;47.450;19.124;2023-06-04T10:54:36;20.80;59.90
44215;DHT22;29884;47.450;19.124;2023-06-04T10:57:16;21.00;57.70
44215;DHT22;29884;47.450;19.124;2023-06-04T10:59:59;20.90;58.30
44215;DHT22;29884;47.450;19.124;2023-06-04T11:02:26;21.10;58.40
44215;DHT22;29884;47.450;19.124;2023-06-04T11:05:17;21.20;58.10
44215;DHT22;29884;47.450;19.124;2023-06-04T11:07:45;21.30;58.70
44215;DHT22;29884;47.450;19.124;2023-06-04T11:10:12;21.20;58.90
44215;DHT22;29884;47.450;19.124;2023-06-04T11:12:46;21.40;58.50
44215;DHT22;29884;47.450;19.124;2023-06-04T11:15:13;21.80;57.60
44215;DHT22;29884;47.450;19.124;2023-06-04T11:17:51;21.90;57.90
44215;DHT22;29884;47.450;19.124;2023-06-04T11:20:18;22.00;56.40
44215;DHT22;29884;47.450;19.124;2023-06-04T11:22:55;22.20;58.20
44215;DHT22;29884;47.450;19.124;2023-06-04T11:25:25;22.30;57.80
44215;DHT22;29884;47.450;19.124;2023-06-04T11:27:55;22.20;56.10
44215;DHT22;29884;47.450;19.124;2023-06-04T11:30:21;22.20;56.60
44215;DHT22;29884;47.450;19.124;2023-06-04T11:32:47;22.20;58.90
44215;DHT22;29884;47.450;19.124;2023-06-04T11:35:13;22.10;57.20
44215;DHT22;29884;47.450;19.124;2023-06-04T11:37:40;21.90;56.40
44215;DHT22;29884;47.450;19.124;2023-06-04T11:40:17;21.90;57.40
44215;DHT22;29884;47.450;19.124;2023-06-04T11:42:44;21.90;57.90
44215;DHT22;29884;47.450;19.124;2023-06-04T11:45:14;21.80;58.70
44215;DHT22;29884;47.450;19.124;2023-06-04T11:47:44;21.80;57.80
44215;DHT22;29884;47.450;19.124;2023-06-04T11:50:11;21.70;60.70
44215;DHT22;29884;47.450;19.124;2023-06-04T11:52:37;21.70;57.50
44215;DHT22;29884;47.450;19.124;2023-06-04T11:55:05;21.70;56.00
44215;DHT22;29884;47.450;19.124;2023-06-04T11:57:31;21.60;57.30
44215;DHT22;29884;47.450;19.124;2023-06-04T11:59:57;21.60;58.10
44215;DHT22;29884;47.450;19.124;2023-06-04T12:02:22;21.60;58.90
44215;DHT22;29884;47.450;19.124;2023-06-04T12:04:48;21.60;58.20
44215;DHT22;29884;47.450;19.124;2023-06-04T12:07:19;21.50;58.50
44215;DHT22;29884;47.450;19.124;2023-06-04T12:09:46;21.60;59.20
44215;DHT22;29884;47.450;19.124;2023-06-04T12:12:12;21.60;57.20
44215;DHT22;29884;47.450;19.124;2023-06-04T12:14:38;21.60;57.80
44215;DHT22;29884;47.450;19.124;2023-06-04T12:17:10;21.60;58.30
44215;DHT22;29884;47.450;19.124;2023-06-04T12:19:50;21.50;59.00
44215;DHT22;29884;47.450;19.124;2023-06-04T12:22:16;21.50;58.60
44215;DHT22;29884;47.450;19.124;2023-06-04T12:24:50;21.50;59.80
44215;DHT22;29884;47.450;19.124;2023-06-04T12:27:18;21.50;59.60
44215;DHT22;29884;47.450;19.124;2023-06-04T12:29:57;21.40;60.40
44215;DHT22;29884;47.450;19.124;2023-06-04T12:32:24;21.40;60.80
44215;DHT22;29884;47.450;19.124;2023-06-04T12:34:49;21.60;59.20
44215;DHT22;29884;47.450;19.124;2023-06-04T12:37:15;21.60;59.40
44215;DHT22;29884;47.450;19.124;2023-06-04T12:39:41;21.70;60.20
44215;DHT22;29884;47.450;19.124;2023-06-04T12:42:08;21.70;58.30
44215;DHT22;29884;47.450;19.124;2023-06-04T12:44:40;21.70;59.70
44215;DHT22;29884;47.450;19.124;2023-06-04T12:47:07;21.90;61.40
44215;DHT22;29884;47.450;19.124;2023-06-04T12:49:33;22.00;59.80
44215;DHT22;29884;47.450;19.124;2023-06-04T12:51:59;22.20;59.60
44215;DHT22;29884;47.450;19.124;2023-06-04T12:54:25;22.40;60.60
44215;DHT22;29884;47.450;19.124;2023-06-04T12:56:53;22.30;58.70
44215;DHT22;29884;47.450;19.124;2023-06-04T12:59:18;22.20;58.00
44215;DHT22;29884;47.450;19.124;2023-06-04T13:01:44;22.30;55.00
44215;DHT22;29884;47.450;19.124;2023-06-04T13:04:10;22.30;57.10
44215;DHT22;29884;47.450;19.124;2023-06-04T13:06:36;22.20;55.90
44215;DHT22;29884;47.450;19.124;2023-06-04T13:09:03;22.20;54.90
44215;DHT22;29884;47.450;19.124;2023-06-04T13:11:43;22.20;55.40
44215;DHT22;29884;47.450;19.124;2023-06-04T13:14:10;22.20;56.80
44215;DHT22;29884;47.450;19.124;2023-06-04T13:16:37;22.20;55.00
44215;DHT22;29884;47.450;19.124;2023-06-04T13:19:03;22.30;58.00
44215;DHT22;29884;47.450;19.124;2023-06-04T13:21:29;22.30;56.00
44215;DHT22;29884;47.450;19.124;2023-06-04T13:23:55;22.30;56.50
44215;DHT22;29884;47.450;19.124;2023-06-04T13:26:21;22.30;57.10
44215;DHT22;29884;47.450;19.124;2023-06-04T13:28:47;22.40;56.30
44215;DHT22;29884;47.450;19.124;2023-06-04T13:31:13;22.40;55.70
44215;DHT22;29884;47.450;19.124;2023-06-04T13:33:39;22.40;56.40
44215;DHT22;29884;47.450;19.124;2023-06-04T13:36:05;22.40;56.30
44215;DHT22;29884;47.450;19.124;2023-06-04T13:38:32;22.50;56.40
44215;DHT22;29884;47.450;19.124;2023-06-04T13:40:58;22.40;54.70
44215;DHT22;29884;47.450;19.124;2023-06-04T13:43:24;22.50;56.20
44215;DHT22;29884;47.450;19.124;2023-06-04T13:45:50;22.60;56.00
44215;DHT22;29884;47.450;19.124;2023-06-04T13:48:15;22.60;55.60
44215;DHT22;29884;47.450;19.124;2023-06-04T13:50:42;22.40;56.50
44215;DHT22;29884;47.450;19.124;2023-06-04T13:53:08;22.50;55.80
44215;DHT22;29884;47.450;19.124;2023-06-04T13:55:34;22.50;55.50
44215;DHT22;29884;47.450;19.124;2023-06-04T13:58:00;22.40;55.10
44215;DHT22;29884;47.450;19.124;2023-06-04T14:00:26;22.40;55.00
44215;DHT22;29884;47.450;19.124;2023-06-04T14:02:52;22.50;55.90
44215;DHT22;29884;47.450;19.124;2023-06-04T14:05:21;22.50;55.70
44215;DHT22;29884;47.450;19.124;2023-06-04T14:07:46;22.40;55.10
44215;DHT22;29884;47.450;19.124;2023-06-04T14:10:13;22.40;55.20
44215;DHT22;29884;47.450;19.124;2023-06-04T14:12:39;22.30;55.60
44215;DHT22;29884;47.450;19.124;2023-06-04T14:15:10;22.30;55.40
44215;DHT22;29884;47.450;19.124;2023-06-04T14:17:37;22.30;55.10
44215;DHT22;29884;47.450;19.124;2023-06-04T14:20:04;22.30;56.90
44215;DHT22;29884;47.450;19.124;2023-06-04T14:22:34;22.40;56.60
44215;DHT22;29884;47.450;19.124;2023-06-04T14:25:05;22.30;57.10
44215;DHT22;29884;47.450;19.124;2023-06-04T14:27:32;22.40;57.00
44215;DHT22;29884;47.450;19.124;2023-06-04T14:29:58;22.40;57.40
44215;DHT22;29884;47.450;19.124;2023-06-04T14:32:23;22.40;57.60
44215;DHT22;29884;47.450;19.124;2023-06-04T14:34:49;22.40;56.70
44215;DHT22;29884;47.450;19.124;2023-06-04T14:37:15;22.30;56.60
44215;DHT22;29884;47.450;19.124;2023-06-04T14:39:41;22.20;57.10
44215;DHT22;29884;47.450;19.124;2023-06-04T14:42:07;22.20;57.10
44215;DHT22;29884;47.450;19.124;2023-06-04T14:44:33;22.20;57.50
44215;DHT22;29884;47.450;19.124;2023-06-04T14:46:59;22.10;56.90
44215;DHT22;29884;47.450;19.124;2023-06-04T14:49:25;22.10;57.40
44215;DHT22;29884;47.450;19.124;2023-06-04T14:51:51;22.10;57.50
44215;DHT22;29884;47.450;19.124;2023-06-04T14:54:16;22.00;57.80
44215;DHT22;29884;47.450;19.124;2023-06-04T14:56:43;22.00;58.40
44215;DHT22;29884;47.450;19.124;2023-06-04T14:59:09;22.10;57.80
44215;DHT22;29884;47.450;19.124;2023-06-04T15:01:40;22.00;57.90
44215;DHT22;29884;47.450;19.124;2023-06-04T15:04:07;22.10;58.50
44215;DHT22;29884;47.450;19.124;2023-06-04T15:06:33;22.00;58.40
44215;DHT22;29884;47.450;19.124;2023-06-04T15:08:59;22.00;58.30
44215;DHT22;29884;47.450;19.124;2023-06-04T15:11:25;22.10;58.90
44215;DHT22;29884;47.450;19.124;2023-06-04T15:13:52;22.10;58.60
44215;DHT22;29884;47.450;19.124;2023-06-04T15:16:18;22.10;58.90
44215;DHT22;29884;47.450;19.124;2023-06-04T15:18:44;22.10;59.50
44215;DHT22;29884;47.450;19.124;2023-06-04T15:21:10;22.10;59.20